sensor_id;sensor_type;location;lat;lon;timestamp;P1;durP1;ratioP1;P2;durP2;ratioP2
5058;SDS011;2548;52.050;11.036;2023-05-07T00:02:07;18.60;;;14.55;;
5058;SDS011;2548;52.050;11.036;2023-05-07T00:04:35;20.95;;;15.55;;
5058;SDS011;2548;52.050;11.036;2023-05-07T00:07:04;21.25;;;15.02;;
5058;SDS011;2548;52.050;11.036;2023-05-07T00:09:32;21.08;;;14.40;;
5058;SDS011;2548;52.050;11.036;2023-05-07T00:11:59;20.35;;;15.05;;
5058;SDS011;2548;52.050;11.036;2023-05-07T00:14:27;18.90;;;14.63;;
5058;SDS011;2548;52.050;11.036;2023-05-07T00:16:56;20.48;;;14.82;;
5058;SDS011;2548;52.050;11.036;2023-05-07T00:19:23;20.48;;;12.73;;
5058;SDS011;2548;52.050;11.036;2023-05-07T00:21:50;18.23;;;14.50;;
5058;SDS011;2548;52.050;11.036;2023-05-07T00:24:19;17.25;;;13.57;;
5058;SDS011;2548;52.050;11.036;2023-05-07T00:26:46;21.00;;;15.40;;
5058;SDS011;2548;52.050;11.036;2023-05-07T00:29:14;19.10;;;14.70;;
5058;SDS011;2548;52.050;11.036;2023-05-07T00:31:41;17.42;;;13.95;;
5058;SDS011;2548;52.050;11.036;2023-05-07T00:34:10;18.02;;;13.00;;
5058;SDS011;2548;52.050;11.036;2023-05-07T00:36:37;16.35;;;12.73;;
5058;SDS011;2548;52.050;11.036;2023-05-07T00:39:05;16.35;;;12.32;;
5058;SDS011;2548;52.050;11.036;2023-05-07T00:41:32;22.90;;;14.05;;
5058;SDS011;2548;52.050;11.036;2023-05-07T00:44:00;17.33;;;13.35;;
5058;SDS011;2548;52.050;11.036;2023-05-07T00:46:28;20.83;;;14.27;;
5058;SDS011;2548;52.050;11.036;2023-05-07T00:48:57;18.00;;;12.55;;
5058;SDS011;2548;52.050;11.036;2023-05-07T00:51:27;15.07;;;13.20;;
5058;SDS011;2548;52.050;11.036;2023-05-07T00:53:55;16.80;;;13.20;;
5058;SDS011;2548;52.050;11.036;2023-05-07T00:56:23;16.38;;;13.07;;
5058;SDS011;2548;52.050;11.036;2023-05-07T00:58:51;13.93;;;11.73;;
5058;SDS011;2548;52.050;11.036;2023-05-07T01:01:19;14.48;;;11.32;;
5058;SDS011;2548;52.050;11.036;2023-05-07T01:03:47;12.93;;;11.10;;
5058;SDS011;2548;52.050;11.036;2023-05-07T01:06:14;14.27;;;10.55;;
5058;SDS011;2548;52.050;11.036;2023-05-07T01:08:44;11.13;;;9.45;;
5058;SDS011;2548;52.050;11.036;2023-05-07T01:11:13;13.00;;;10.25;;
5058;SDS011;2548;52.050;11.036;2023-05-07T01:13:41;13.32;;;10.35;;
5058;SDS011;2548;52.050;11.036;2023-05-07T01:16:09;12.80;;;10.80;;
5058;SDS011;2548;52.050;11.036;2023-05-07T01:18:37;12.50;;;10.43;;
5058;SDS011;2548;52.050;11.036;2023-05-07T01:21:04;12.98;;;9.45;;
5058;SDS011;2548;52.050;11.036;2023-05-07T01:23:34;14.68;;;11.25;;
5058;SDS011;2548;52.050;11.036;2023-05-07T01:26:02;12.48;;;10.05;;
5058;SDS011;2548;52.050;11.036;2023-05-07T01:28:32;18.77;;;10.07;;
5058;SDS011;2548;52.050;11.036;2023-05-07T01:31:01;15.20;;;10.65;;
5058;SDS011;2548;52.050;11.036;2023-05-07T01:33:33;14.70;;;10.85;;
5058;SDS011;2548;52.050;11.036;2023-05-07T01:36:01;13.63;;;11.00;;
5058;SDS011;2548;52.050;11.036;2023-05-07T01:38:32;14.05;;;12.23;;
5058;SDS011;2548;52.050;11.036;2023-05-07T01:41:01;12.80;;;10.70;;
5058;SDS011;2548;52.050;11.036;2023-05-07T01:43:29;20.98;;;13.40;;
5058;SDS011;2548;52.050;11.036;2023-05-07T01:45:57;16.35;;;12.15;;
5058;SDS011;2548;52.050;11.036;2023-05-07T01:48:26;12.82;;;11.27;;
5058;SDS011;2548;52.050;11.036;2023-05-07T01:50:55;15.52;;;12.88;;
5058;SDS011;2548;52.050;11.036;2023-05-07T01:53:22;16.80;;;11.82;;
5058;SDS011;2548;52.050;11.036;2023-05-07T01:55:50;18.10;;;13.50;;
5058;SDS011;2548;52.050;11.036;2023-05-07T01:58:20;16.35;;;12.60;;
5058;SDS011;2548;52.050;11.036;2023-05-07T02:00:48;14.82;;;11.65;;
5058;SDS011;2548;52.050;11.036;2023-05-07T02:03:15;15.48;;;11.00;;
5058;SDS011;2548;52.050;11.036;2023-05-07T02:05:56;15.48;;;11.88;;
5058;SDS011;2548;52.050;11.036;2023-05-07T02:08:31;18.80;;;12.63;;
5058;SDS011;2548;52.050;11.036;2023-05-07T02:10:59;14.50;;;11.70;;
5058;SDS011;2548;52.050;11.036;2023-05-07T02:13:29;15.63;;;12.18;;
5058;SDS011;2548;52.050;11.036;2023-05-07T02:16:00;15.88;;;12.32;;
5058;SDS011;2548;52.050;11.036;2023-05-07T02:18:28;16.70;;;12.35;;
5058;SDS011;2548;52.050;11.036;2023-05-07T02:20:55;15.02;;;12.20;;
5058;SDS011;2548;52.050;11.036;2023-05-07T02:23:23;13.80;;;11.45;;
5058;SDS011;2548;52.050;11.036;2023-05-07T02:25:50;13.93;;;11.93;;
5058;SDS011;2548;52.050;11.036;2023-05-07T02:28:18;14.27;;;11.38;;
5058;SDS011;2548;52.050;11.036;2023-05-07T02:30:58;13.73;;;11.50;;
5058;SDS011;2548;52.050;11.036;2023-05-07T02:33:26;14.55;;;11.88;;
5058;SDS011;2548;52.050;11.036;2023-05-07T02:35:54;11.38;;;10.00;;
5058;SDS011;2548;52.050;11.036;2023-05-07T02:38:21;12.77;;;10.60;;
5058;SDS011;2548;52.050;11.036;2023-05-07T02:40:49;12.15;;;9.90;;
5058;SDS011;2548;52.050;11.036;2023-05-07T02:43:16;11.40;;;10.25;;
5058;SDS011;2548;52.050;11.036;2023-05-07T02:45:47;14.82;;;11.07;;
5058;SDS011;2548;52.050;11.036;2023-05-07T02:48:16;14.70;;;9.80;;
5058;SDS011;2548;52.050;11.036;2023-05-07T02:50:44;12.23;;;10.93;;
5058;SDS011;2548;52.050;11.036;2023-05-07T02:53:13;14.05;;;11.07;;
5058;SDS011;2548;52.050;11.036;2023-05-07T02:55:41;12.40;;;9.90;;
5058;SDS011;2548;52.050;11.036;2023-05-07T02:58:08;14.15;;;10.65;;
5058;SDS011;2548;52.050;11.036;2023-05-07T03:00:37;14.20;;;11.80;;
5058;SDS011;2548;52.050;11.036;2023-05-07T03:03:22;12.00;;;10.50;;
5058;SDS011;2548;52.050;11.036;2023-05-07T03:05:50;13.40;;;11.20;;
5058;SDS011;2548;52.050;11.036;2023-05-07T03:08:17;11.77;;;10.18;;
5058;SDS011;2548;52.050;11.036;2023-05-07T03:10:45;13.38;;;10.80;;
5058;SDS011;2548;52.050;11.036;2023-05-07T03:13:13;12.90;;;10.85;;
5058;SDS011;2548;52.050;11.036;2023-05-07T03:15:40;11.65;;;10.20;;
5058;SDS011;2548;52.050;11.036;2023-05-07T03:18:08;11.98;;;10.77;;
5058;SDS011;2548;52.050;11.036;2023-05-07T03:20:37;12.68;;;10.90;;
5058;SDS011;2548;52.050;11.036;2023-05-07T03:23:05;11.10;;;9.93;;
5058;SDS011;2548;52.050;11.036;2023-05-07T03:25:33;12.13;;;10.60;;
5058;SDS011;2548;52.050;11.036;2023-05-07T03:28:00;11.35;;;10.25;;
5058;SDS011;2548;52.050;11.036;2023-05-07T03:30:36;13.13;;;10.45;;
5058;SDS011;2548;52.050;11.036;2023-05-07T03:33:04;10.93;;;9.82;;
5058;SDS011;2548;52.050;11.036;2023-05-07T03:35:32;10.65;;;9.65;;
5058;SDS011;2548;52.050;11.036;2023-05-07T03:38:01;11.20;;;9.55;;
5058;SDS011;2548;52.050;11.036;2023-05-07T03:40:32;11.73;;;9.93;;
5058;SDS011;2548;52.050;11.036;2023-05-07T03:43:00;11.88;;;10.68;;
5058;SDS011;2548;52.050;11.036;2023-05-07T03:45:30;12.25;;;10.10;;
5058;SDS011;2548;52.050;11.036;2023-05-07T03:48:07;11.30;;;10.13;;
5058;SDS011;2548;52.050;11.036;2023-05-07T03:50:34;11.60;;;10.50;;
5058;SDS011;2548;52.050;11.036;2023-05-07T03:53:03;12.80;;;10.80;;
5058;SDS011;2548;52.050;11.036;2023-05-07T03:55:34;10.95;;;9.93;;
5058;SDS011;2548;52.050;11.036;2023-05-07T03:58:01;13.98;;;12.52;;
5058;SDS011;2548;52.050;11.036;2023-05-07T04:00:29;11.73;;;10.52;;
5058;SDS011;2548;52.050;11.036;2023-05-07T04:02:59;11.68;;;10.63;;
5058;SDS011;2548;52.050;11.036;2023-05-07T04:05:30;12.35;;;11.10;;
5058;SDS011;2548;52.050;11.036;2023-05-07T04:08:00;10.73;;;9.43;;
5058;SDS011;2548;52.050;11.036;2023-05-07T04:10:37;11.52;;;10.32;;
5058;SDS011;2548;52.050;11.036;2023-05-07T04:13:08;11.27;;;10.13;;
5058;SDS011;2548;52.050;11.036;2023-05-07T04:15:36;10.88;;;9.98;;
5058;SDS011;2548;52.050;11.036;2023-05-07T04:18:07;10.32;;;9.32;;
5058;SDS011;2548;52.050;11.036;2023-05-07T04:20:35;10.35;;;9.45;;
5058;SDS011;2548;52.050;11.036;2023-05-07T04:23:06;10.52;;;9.52;;
5058;SDS011;2548;52.050;11.036;2023-05-07T04:25:34;12.40;;;11.20;;
5058;SDS011;2548;52.050;11.036;2023-05-07T04:28:09;12.82;;;11.52;;
5058;SDS011;2548;52.050;11.036;2023-05-07T04:30:38;12.88;;;11.55;;
5058;SDS011;2548;52.050;11.036;2023-05-07T04:33:06;11.80;;;10.63;;
5058;SDS011;2548;52.050;11.036;2023-05-07T04:35:35;12.35;;;10.82;;
5058;SDS011;2548;52.050;11.036;2023-05-07T04:38:05;13.52;;;12.13;;
5058;SDS011;2548;52.050;11.036;2023-05-07T04:40:34;13.95;;;12.55;;
5058;SDS011;2548;52.050;11.036;2023-05-07T04:43:03;15.05;;;13.43;;
5058;SDS011;2548;52.050;11.036;2023-05-07T04:45:35;15.63;;;13.65;;
5058;SDS011;2548;52.050;11.036;2023-05-07T04:48:05;15.88;;;14.18;;
5058;SDS011;2548;52.050;11.036;2023-05-07T04:50:34;16.35;;;14.65;;
5058;SDS011;2548;52.050;11.036;2023-05-07T04:53:02;17.27;;;15.50;;
5058;SDS011;2548;52.050;11.036;2023-05-07T04:55:31;21.42;;;15.05;;
5058;SDS011;2548;52.050;11.036;2023-05-07T04:57:59;17.00;;;15.30;;
5058;SDS011;2548;52.050;11.036;2023-05-07T05:00:29;17.95;;;14.98;;
5058;SDS011;2548;52.050;11.036;2023-05-07T05:02:57;16.00;;;14.38;;
5058;SDS011;2548;52.050;11.036;2023-05-07T05:05:25;15.73;;;14.13;;
5058;SDS011;2548;52.050;11.036;2023-05-07T05:07:54;19.58;;;14.75;;
5058;SDS011;2548;52.050;11.036;2023-05-07T05:10:21;16.52;;;14.65;;
5058;SDS011;2548;52.050;11.036;2023-05-07T05:12:51;15.25;;;13.27;;
5058;SDS011;2548;52.050;11.036;2023-05-07T05:15:20;15.85;;;13.57;;
5058;SDS011;2548;52.050;11.036;2023-05-07T05:17:47;16.83;;;14.38;;
5058;SDS011;2548;52.050;11.036;2023-05-07T05:20:15;16.67;;;14.65;;
5058;SDS011;2548;52.050;11.036;2023-05-07T05:22:43;14.60;;;12.52;;
5058;SDS011;2548;52.050;11.036;2023-05-07T05:25:12;16.27;;;13.65;;
5058;SDS011;2548;52.050;11.036;2023-05-07T05:27:40;18.35;;;13.88;;
5058;SDS011;2548;52.050;11.036;2023-05-07T05:30:10;15.93;;;13.60;;
5058;SDS011;2548;52.050;11.036;2023-05-07T05:32:38;15.23;;;13.05;;
5058;SDS011;2548;52.050;11.036;2023-05-07T05:35:06;19.00;;;14.23;;
5058;SDS011;2548;52.050;11.036;2023-05-07T05:37:35;15.05;;;12.70;;
5058;SDS011;2548;52.050;11.036;2023-05-07T05:40:05;16.52;;;11.98;;
5058;SDS011;2548;52.050;11.036;2023-05-07T05:42:34;14.80;;;12.55;;
5058;SDS011;2548;52.050;11.036;2023-05-07T05:45:02;12.73;;;11.50;;
5058;SDS011;2548;52.050;11.036;2023-05-07T05:47:33;13.68;;;12.20;;
5058;SDS011;2548;52.050;11.036;2023-05-07T05:50:01;13.13;;;11.77;;
5058;SDS011;2548;52.050;11.036;2023-05-07T05:52:28;12.00;;;10.75;;
5058;SDS011;2548;52.050;11.036;2023-05-07T05:54:56;13.38;;;11.90;;
5058;SDS011;2548;52.050;11.036;2023-05-07T05:57:25;12.70;;;11.38;;
5058;SDS011;2548;52.050;11.036;2023-05-07T05:59:52;14.77;;;12.25;;
5058;SDS011;2548;52.050;11.036;2023-05-07T06:02:20;12.75;;;11.32;;
5058;SDS011;2548;52.050;11.036;2023-05-07T06:04:49;14.63;;;11.23;;
5058;SDS011;2548;52.050;11.036;2023-05-07T06:07:19;14.50;;;12.00;;
5058;SDS011;2548;52.050;11.036;2023-05-07T06:09:47;12.65;;;11.35;;
5058;SDS011;2548;52.050;11.036;2023-05-07T06:12:15;15.15;;;12.13;;
5058;SDS011;2548;52.050;11.036;2023-05-07T06:14:42;12.75;;;11.45;;
5058;SDS011;2548;52.050;11.036;2023-05-07T06:17:11;12.75;;;11.55;;
5058;SDS011;2548;52.050;11.036;2023-05-07T06:19:38;13.32;;;10.90;;
5058;SDS011;2548;52.050;11.036;2023-05-07T06:22:08;14.75;;;12.38;;
5058;SDS011;2548;52.050;11.036;2023-05-07T06:24:35;13.20;;;11.85;;
5058;SDS011;2548;52.050;11.036;2023-05-07T06:27:05;13.15;;;10.98;;
5058;SDS011;2548;52.050;11.036;2023-05-07T06:29:33;13.27;;;11.98;;
5058;SDS011;2548;52.050;11.036;2023-05-07T06:32:08;14.50;;;11.27;;
5058;SDS011;2548;52.050;11.036;2023-05-07T06:34:38;13.25;;;11.85;;
5058;SDS011;2548;52.050;11.036;2023-05-07T06:37:08;12.55;;;11.23;;
5058;SDS011;2548;52.050;11.036;2023-05-07T06:39:47;14.20;;;10.90;;
5058;SDS011;2548;52.050;11.036;2023-05-07T06:42:16;12.40;;;10.88;;
5058;SDS011;2548;52.050;11.036;2023-05-07T06:44:46;14.63;;;13.13;;
5058;SDS011;2548;52.050;11.036;2023-05-07T06:47:16;12.88;;;11.52;;
5058;SDS011;2548;52.050;11.036;2023-05-07T06:49:46;14.70;;;13.25;;
5058;SDS011;2548;52.050;11.036;2023-05-07T06:52:18;11.57;;;10.38;;
5058;SDS011;2548;52.050;11.036;2023-05-07T06:54:47;22.90;;;19.48;;
5058;SDS011;2548;52.050;11.036;2023-05-07T06:57:16;22.17;;;17.15;;
5058;SDS011;2548;52.050;11.036;2023-05-07T06:59:44;14.93;;;12.60;;
5058;SDS011;2548;52.050;11.036;2023-05-07T07:02:11;12.27;;;11.05;;
5058;SDS011;2548;52.050;11.036;2023-05-07T07:04:39;11.63;;;10.52;;
5058;SDS011;2548;52.050;11.036;2023-05-07T07:07:10;12.40;;;11.07;;
5058;SDS011;2548;52.050;11.036;2023-05-07T07:09:39;14.32;;;10.70;;
5058;SDS011;2548;52.050;11.036;2023-05-07T07:12:08;12.55;;;10.95;;
5058;SDS011;2548;52.050;11.036;2023-05-07T07:14:39;12.40;;;11.10;;
5058;SDS011;2548;52.050;11.036;2023-05-07T07:17:07;13.50;;;12.23;;
5058;SDS011;2548;52.050;11.036;2023-05-07T07:19:35;14.18;;;12.35;;
5058;SDS011;2548;52.050;11.036;2023-05-07T07:22:03;11.48;;;10.35;;
5058;SDS011;2548;52.050;11.036;2023-05-07T07:24:32;13.48;;;12.07;;
5058;SDS011;2548;52.050;11.036;2023-05-07T07:27:04;12.38;;;11.07;;
5058;SDS011;2548;52.050;11.036;2023-05-07T07:29:33;15.65;;;12.05;;
5058;SDS011;2548;52.050;11.036;2023-05-07T07:32:01;13.27;;;11.95;;
5058;SDS011;2548;52.050;11.036;2023-05-07T07:34:29;15.35;;;12.90;;
5058;SDS011;2548;52.050;11.036;2023-05-07T07:36:57;15.63;;;12.80;;
5058;SDS011;2548;52.050;11.036;2023-05-07T07:39:24;14.48;;;12.98;;
5058;SDS011;2548;52.050;11.036;2023-05-07T07:41:55;16.63;;;14.15;;
5058;SDS011;2548;52.050;11.036;2023-05-07T07:44:24;15.02;;;13.18;;
5058;SDS011;2548;52.050;11.036;2023-05-07T07:46:57;22.58;;;14.93;;
5058;SDS011;2548;52.050;11.036;2023-05-07T07:49:26;17.13;;;13.23;;
5058;SDS011;2548;52.050;11.036;2023-05-07T07:51:55;14.60;;;12.55;;
5058;SDS011;2548;52.050;11.036;2023-05-07T07:54:25;17.08;;;12.30;;
5058;SDS011;2548;52.050;11.036;2023-05-07T07:56:53;14.68;;;11.43;;
5058;SDS011;2548;52.050;11.036;2023-05-07T07:59:20;14.85;;;12.95;;
5058;SDS011;2548;52.050;11.036;2023-05-07T08:01:50;12.90;;;11.60;;
5058;SDS011;2548;52.050;11.036;2023-05-07T08:04:21;12.90;;;11.60;;
5058;SDS011;2548;52.050;11.036;2023-05-07T08:06:49;12.45;;;11.15;;
5058;SDS011;2548;52.050;11.036;2023-05-07T08:09:17;11.75;;;10.20;;
5058;SDS011;2548;52.050;11.036;2023-05-07T08:11:45;12.38;;;11.18;;
5058;SDS011;2548;52.050;11.036;2023-05-07T08:14:13;10.88;;;9.88;;
5058;SDS011;2548;52.050;11.036;2023-05-07T08:16:42;10.85;;;9.73;;
5058;SDS011;2548;52.050;11.036;2023-05-07T08:19:11;11.30;;;10.23;;
5058;SDS011;2548;52.050;11.036;2023-05-07T08:21:39;11.77;;;10.57;;
5058;SDS011;2548;52.050;11.036;2023-05-07T08:24:08;9.90;;;8.90;;
5058;SDS011;2548;52.050;11.036;2023-05-07T08:26:36;11.48;;;10.27;;
5058;SDS011;2548;52.050;11.036;2023-05-07T08:29:05;11.10;;;9.85;;
5058;SDS011;2548;52.050;11.036;2023-05-07T08:31:33;20.00;;;9.82;;
5058;SDS011;2548;52.050;11.036;2023-05-07T08:34:00;10.05;;;9.15;;
5058;SDS011;2548;52.050;11.036;2023-05-07T08:36:29;10.07;;;9.07;;
5058;SDS011;2548;52.050;11.036;2023-05-07T08:38:57;9.88;;;8.88;;
5058;SDS011;2548;52.050;11.036;2023-05-07T08:41:25;9.30;;;8.40;;
5058;SDS011;2548;52.050;11.036;2023-05-07T08:43:52;11.27;;;8.85;;
5058;SDS011;2548;52.050;11.036;2023-05-07T08:46:24;8.77;;;8.05;;
5058;SDS011;2548;52.050;11.036;2023-05-07T08:48:55;8.70;;;7.90;;
5058;SDS011;2548;52.050;11.036;2023-05-07T08:51:22;8.40;;;7.53;;
5058;SDS011;2548;52.050;11.036;2023-05-07T08:53:52;9.30;;;8.48;;
5058;SDS011;2548;52.050;11.036;2023-05-07T08:56:28;9.85;;;8.98;;
5058;SDS011;2548;52.050;11.036;2023-05-07T08:58:55;9.20;;;8.30;;
5058;SDS011;2548;52.050;11.036;2023-05-07T09:01:25;8.98;;;8.23;;
5058;SDS011;2548;52.050;11.036;2023-05-07T09:03:54;24.20;;;15.23;;
5058;SDS011;2548;52.050;11.036;2023-05-07T09:06:22;13.35;;;11.27;;
5058;SDS011;2548;52.050;11.036;2023-05-07T09:08:51;17.27;;;13.68;;
5058;SDS011;2548;52.050;11.036;2023-05-07T09:11:24;13.23;;;11.45;;
5058;SDS011;2548;52.050;11.036;2023-05-07T09:13:53;11.88;;;10.65;;
5058;SDS011;2548;52.050;11.036;2023-05-07T09:16:24;18.60;;;11.75;;
5058;SDS011;2548;52.050;11.036;2023-05-07T09:18:53;10.88;;;9.20;;
5058;SDS011;2548;52.050;11.036;2023-05-07T09:21:22;10.63;;;9.20;;
5058;SDS011;2548;52.050;11.036;2023-05-07T09:23:53;10.45;;;7.15;;
5058;SDS011;2548;52.050;11.036;2023-05-07T09:26:26;7.93;;;7.22;;
5058;SDS011;2548;52.050;11.036;2023-05-07T09:28:54;9.65;;;8.70;;
5058;SDS011;2548;52.050;11.036;2023-05-07T09:31:22;8.73;;;8.02;;
5058;SDS011;2548;52.050;11.036;2023-05-07T09:33:52;8.75;;;7.95;;
5058;SDS011;2548;52.050;11.036;2023-05-07T09:36:23;9.30;;;8.40;;
5058;SDS011;2548;52.050;11.036;2023-05-07T09:38:50;22.35;;;7.65;;
5058;SDS011;2548;52.050;11.036;2023-05-07T09:41:19;8.35;;;7.57;;
5058;SDS011;2548;52.050;11.036;2023-05-07T09:43:57;7.45;;;6.65;;
5058;SDS011;2548;52.050;11.036;2023-05-07T09:46:30;8.40;;;7.68;;
5058;SDS011;2548;52.050;11.036;2023-05-07T09:49:03;7.85;;;7.25;;
5058;SDS011;2548;52.050;11.036;2023-05-07T09:51:38;7.10;;;6.50;;
5058;SDS011;2548;52.050;11.036;2023-05-07T09:54:11;7.10;;;6.43;;
5058;SDS011;2548;52.050;11.036;2023-05-07T09:56:42;7.10;;;6.50;;
5058;SDS011;2548;52.050;11.036;2023-05-07T09:59:11;8.45;;;7.00;;
5058;SDS011;2548;52.050;11.036;2023-05-07T10:01:41;8.63;;;7.82;;
5058;SDS011;2548;52.050;11.036;2023-05-07T10:04:10;17.33;;;15.65;;
5058;SDS011;2548;52.050;11.036;2023-05-07T10:06:40;12.57;;;10.70;;
5058;SDS011;2548;52.050;11.036;2023-05-07T10:09:09;10.07;;;7.85;;
5058;SDS011;2548;52.050;11.036;2023-05-07T10:11:39;8.85;;;8.05;;
5058;SDS011;2548;52.050;11.036;2023-05-07T10:14:07;8.50;;;7.45;;
5058;SDS011;2548;52.050;11.036;2023-05-07T10:16:36;7.63;;;7.00;;
5058;SDS011;2548;52.050;11.036;2023-05-07T10:19:09;6.85;;;6.25;;
5058;SDS011;2548;52.050;11.036;2023-05-07T10:21:38;6.60;;;6.05;;
5058;SDS011;2548;52.050;11.036;2023-05-07T10:24:13;7.85;;;7.25;;
5058;SDS011;2548;52.050;11.036;2023-05-07T10:26:47;6.82;;;6.32;;
5058;SDS011;2548;52.050;11.036;2023-05-07T10:29:18;6.60;;;6.05;;
5058;SDS011;2548;52.050;11.036;2023-05-07T10:31:57;7.45;;;6.85;;
5058;SDS011;2548;52.050;11.036;2023-05-07T10:34:36;8.20;;;7.55;;
5058;SDS011;2548;52.050;11.036;2023-05-07T10:37:07;8.43;;;7.57;;
5058;SDS011;2548;52.050;11.036;2023-05-07T10:39:37;8.75;;;7.78;;
5058;SDS011;2548;52.050;11.036;2023-05-07T10:42:08;10.88;;;9.80;;
5058;SDS011;2548;52.050;11.036;2023-05-07T10:44:38;13.52;;;9.50;;
5058;SDS011;2548;52.050;11.036;2023-05-07T10:47:11;10.82;;;9.93;;
5058;SDS011;2548;52.050;11.036;2023-05-07T10:52:55;9.90;;;9.10;;
5058;SDS011;2548;52.050;11.036;2023-05-07T10:56:26;9.35;;;8.50;;
5058;SDS011;2548;52.050;11.036;2023-05-07T11:02:05;8.98;;;7.95;;
5058;SDS011;2548;52.050;11.036;2023-05-07T11:07:53;7.80;;;7.20;;
5058;SDS011;2548;52.050;11.036;2023-05-07T11:10:26;9.25;;;8.45;;
5058;SDS011;2548;52.050;11.036;2023-05-07T11:16:19;8.20;;;7.57;;
5058;SDS011;2548;52.050;11.036;2023-05-07T11:18:53;11.68;;;8.45;;
5058;SDS011;2548;52.050;11.036;2023-05-07T11:21:31;10.05;;;9.25;;
5058;SDS011;2548;52.050;11.036;2023-05-07T11:24:08;9.95;;;9.05;;
5058;SDS011;2548;52.050;11.036;2023-05-07T11:26:48;10.43;;;9.32;;
5058;SDS011;2548;52.050;11.036;2023-05-07T11:29:20;9.05;;;8.35;;
5058;SDS011;2548;52.050;11.036;2023-05-07T11:31:51;10.20;;;8.32;;
5058;SDS011;2548;52.050;11.036;2023-05-07T11:34:26;11.05;;;10.00;;
5058;SDS011;2548;52.050;11.036;2023-05-07T11:36:56;9.30;;;8.35;;
5058;SDS011;2548;52.050;11.036;2023-05-07T11:39:40;9.85;;;8.55;;
5058;SDS011;2548;52.050;11.036;2023-05-07T11:42:19;7.90;;;7.28;;
5058;SDS011;2548;52.050;11.036;2023-05-07T11:44:53;8.70;;;7.80;;
5058;SDS011;2548;52.050;11.036;2023-05-07T11:47:21;8.50;;;7.80;;
5058;SDS011;2548;52.050;11.036;2023-05-07T11:49:49;9.93;;;8.23;;
5058;SDS011;2548;52.050;11.036;2023-05-07T11:52:18;8.57;;;7.78;;
5058;SDS011;2548;52.050;11.036;2023-05-07T11:54:48;8.23;;;7.45;;
5058;SDS011;2548;52.050;11.036;2023-05-07T11:57:16;8.48;;;7.53;;
5058;SDS011;2548;52.050;11.036;2023-05-07T11:59:43;11.65;;;7.85;;
5058;SDS011;2548;52.050;11.036;2023-05-07T12:02:14;8.30;;;7.60;;
5058;SDS011;2548;52.050;11.036;2023-05-07T12:04:44;8.48;;;7.72;;
5058;SDS011;2548;52.050;11.036;2023-05-07T12:07:11;9.55;;;8.65;;
5058;SDS011;2548;52.050;11.036;2023-05-07T12:09:40;12.27;;;10.05;;
5058;SDS011;2548;52.050;11.036;2023-05-07T12:12:07;39.10;;;19.58;;
5058;SDS011;2548;52.050;11.036;2023-05-07T12:14:37;11.63;;;7.80;;
5058;SDS011;2548;52.050;11.036;2023-05-07T12:17:05;29.27;;;16.90;;
5058;SDS011;2548;52.050;11.036;2023-05-07T12:19:34;12.18;;;9.00;;
5058;SDS011;2548;52.050;11.036;2023-05-07T12:22:03;8.23;;;7.45;;
5058;SDS011;2548;52.050;11.036;2023-05-07T12:24:42;7.68;;;6.97;;
5058;SDS011;2548;52.050;11.036;2023-05-07T12:27:10;10.27;;;9.15;;
5058;SDS011;2548;52.050;11.036;2023-05-07T12:29:38;8.13;;;7.32;;
5058;SDS011;2548;52.050;11.036;2023-05-07T12:32:06;7.60;;;6.88;;
5058;SDS011;2548;52.050;11.036;2023-05-07T12:34:40;10.02;;;8.68;;
5058;SDS011;2548;52.050;11.036;2023-05-07T12:37:08;8.32;;;7.53;;
5058;SDS011;2548;52.050;11.036;2023-05-07T12:39:35;8.75;;;7.95;;
5058;SDS011;2548;52.050;11.036;2023-05-07T12:42:03;10.30;;;8.40;;
5058;SDS011;2548;52.050;11.036;2023-05-07T12:44:31;9.10;;;8.20;;
5058;SDS011;2548;52.050;11.036;2023-05-07T12:47:01;9.48;;;8.57;;
5058;SDS011;2548;52.050;11.036;2023-05-07T12:49:29;10.35;;;9.30;;
5058;SDS011;2548;52.050;11.036;2023-05-07T12:51:57;10.60;;;9.38;;
5058;SDS011;2548;52.050;11.036;2023-05-07T12:54:28;8.55;;;7.85;;
5058;SDS011;2548;52.050;11.036;2023-05-07T12:57:00;8.20;;;7.50;;
5058;SDS011;2548;52.050;11.036;2023-05-07T12:59:32;9.90;;;9.02;;
5058;SDS011;2548;52.050;11.036;2023-05-07T13:02:01;9.60;;;8.60;;
5058;SDS011;2548;52.050;11.036;2023-05-07T13:04:28;8.02;;;7.32;;
5058;SDS011;2548;52.050;11.036;2023-05-07T13:06:57;10.05;;;9.05;;
5058;SDS011;2548;52.050;11.036;2023-05-07T13:09:25;8.82;;;7.88;;
5058;SDS011;2548;52.050;11.036;2023-05-07T13:11:54;9.48;;;8.50;;
5058;SDS011;2548;52.050;11.036;2023-05-07T13:14:22;8.25;;;7.43;;
5058;SDS011;2548;52.050;11.036;2023-05-07T13:16:49;8.88;;;8.02;;
5058;SDS011;2548;52.050;11.036;2023-05-07T13:19:17;8.00;;;7.30;;
5058;SDS011;2548;52.050;11.036;2023-05-07T13:21:44;12.20;;;10.95;;
5058;SDS011;2548;52.050;11.036;2023-05-07T13:24:13;8.10;;;7.30;;
5058;SDS011;2548;52.050;11.036;2023-05-07T13:26:40;7.75;;;7.05;;
5058;SDS011;2548;52.050;11.036;2023-05-07T13:29:08;10.27;;;9.32;;
5058;SDS011;2548;52.050;11.036;2023-05-07T13:31:35;10.35;;;7.25;;
5058;SDS011;2548;52.050;11.036;2023-05-07T13:34:03;9.05;;;8.18;;
5058;SDS011;2548;52.050;11.036;2023-05-07T13:36:30;7.18;;;6.68;;
5058;SDS011;2548;52.050;11.036;2023-05-07T13:39:01;11.93;;;8.10;;
5058;SDS011;2548;52.050;11.036;2023-05-07T13:41:29;7.85;;;7.15;;
5058;SDS011;2548;52.050;11.036;2023-05-07T13:43:57;8.70;;;7.90;;
5058;SDS011;2548;52.050;11.036;2023-05-07T13:46:24;8.23;;;7.45;;
5058;SDS011;2548;52.050;11.036;2023-05-07T13:48:52;9.00;;;8.10;;
5058;SDS011;2548;52.050;11.036;2023-05-07T13:51:19;8.23;;;7.47;;
5058;SDS011;2548;52.050;11.036;2023-05-07T13:53:47;9.57;;;8.77;;
5058;SDS011;2548;52.050;11.036;2023-05-07T13:56:14;8.57;;;7.85;;
5058;SDS011;2548;52.050;11.036;2023-05-07T13:58:43;8.55;;;7.75;;
5058;SDS011;2548;52.050;11.036;2023-05-07T14:01:10;11.18;;;10.05;;
5058;SDS011;2548;52.050;11.036;2023-05-07T14:03:38;11.57;;;9.80;;
5058;SDS011;2548;52.050;11.036;2023-05-07T14:06:05;11.13;;;9.88;;
5058;SDS011;2548;52.050;11.036;2023-05-07T14:08:33;10.55;;;9.55;;
5058;SDS011;2548;52.050;11.036;2023-05-07T14:11:00;9.40;;;8.50;;
5058;SDS011;2548;52.050;11.036;2023-05-07T14:13:27;12.65;;;11.30;;
5058;SDS011;2548;52.050;11.036;2023-05-07T14:15:57;10.55;;;9.55;;
5058;SDS011;2548;52.050;11.036;2023-05-07T14:18:25;13.77;;;11.30;;
5058;SDS011;2548;52.050;11.036;2023-05-07T14:20:54;10.70;;;9.80;;
5058;SDS011;2548;52.050;11.036;2023-05-07T14:23:21;11.73;;;10.63;;
5058;SDS011;2548;52.050;11.036;2023-05-07T14:25:52;10.70;;;9.63;;
5058;SDS011;2548;52.050;11.036;2023-05-07T14:28:19;10.82;;;9.82;;
5058;SDS011;2548;52.050;11.036;2023-05-07T14:30:47;12.93;;;10.02;;
5058;SDS011;2548;52.050;11.036;2023-05-07T14:33:16;11.15;;;9.98;;
5058;SDS011;2548;52.050;11.036;2023-05-07T14:35:44;9.85;;;8.95;;
5058;SDS011;2548;52.050;11.036;2023-05-07T14:38:14;9.52;;;8.55;;
5058;SDS011;2548;52.050;11.036;2023-05-07T14:40:41;8.35;;;7.53;;
5058;SDS011;2548;52.050;11.036;2023-05-07T14:43:09;8.98;;;8.10;;
5058;SDS011;2548;52.050;11.036;2023-05-07T14:45:36;7.90;;;6.18;;
5058;SDS011;2548;52.050;11.036;2023-05-07T14:48:04;8.27;;;7.57;;
5058;SDS011;2548;52.050;11.036;2023-05-07T14:50:33;6.57;;;6.03;;
5058;SDS011;2548;52.050;11.036;2023-05-07T14:53:00;7.35;;;6.85;;
5058;SDS011;2548;52.050;11.036;2023-05-07T14:55:27;15.57;;;7.03;;
5058;SDS011;2548;52.050;11.036;2023-05-07T14:57:55;6.78;;;6.18;;
5058;SDS011;2548;52.050;11.036;2023-05-07T15:00:22;9.23;;;7.60;;
5058;SDS011;2548;52.050;11.036;2023-05-07T15:02:50;7.93;;;7.30;;
5058;SDS011;2548;52.050;11.036;2023-05-07T15:05:18;6.80;;;6.35;;
5058;SDS011;2548;52.050;11.036;2023-05-07T15:07:47;8.10;;;7.30;;
5058;SDS011;2548;52.050;11.036;2023-05-07T15:10:14;13.48;;;7.97;;